Time;durP1;ratioP1;P1;durP2;ratioP2;P2;SDS_P1;SDS_P2;PMS_P1;PMS_P2;Temp;Humidity;BMP_temperature;BMP_pressure;BME280_temperature;BME280_humidity;BME280_pressure;Samples;Min_cycle;Max_cycle;Signal;HPM_P1;HPM_P2
2022/10/07 00:00:23;;;;;;;7.28;2.25;;;;;;;9.89;100.00;100190.69;5092363;28;20506;-79
2022/10/07 00:02:50;;;;;;;4.70;1.58;;;;;;;9.81;100.00;100173.47;5090540;28;20056;-78
2022/10/07 00:05:17;;;;;;;8.98;3.15;;;;;;;9.84;100.00;100182.16;5097395;28;20045;-79
2022/10/07 00:07:44;;;;;;;4.70;1.58;;;;;;;9.74;100.00;100186.81;5104489;28;20565;-79
2022/10/07 00:10:11;;;;;;;4.78;1.42;;;;;;;9.69;100.00;100167.41;5096245;28;20040;-79
2022/10/07 00:12:38;;;;;;;8.05;1.50;;;;;;;10.03;100.00;100193.88;5091732;28;20052;-79
2022/10/07 00:15:05;;;;;;;2.50;1.45;;;;;;;9.83;100.00;100166.00;5092345;28;20056;-79
2022/10/07 00:17:32;;;;;;;4.35;1.30;;;;;;;9.80;100.00;100169.91;5092462;28;20127;-79
2022/10/07 00:19:59;;;;;;;6.22;1.40;;;;;;;10.06;100.00;100188.13;5103963;28;20047;-79
2022/10/07 00:22:25;;;;;;;7.13;1.70;;;;;;;10.08;100.00;100180.66;5106381;28;20054;-79
2022/10/07 00:24:53;;;;;;;8.07;1.98;;;;;;;9.85;100.00;100154.00;5092680;28;20096;-79
2022/10/07 00:27:20;;;;;;;6.10;2.33;;;;;;;9.96;100.00;100173.78;5091374;28;20122;-79
2022/10/07 00:29:46;;;;;;;4.35;1.85;;;;;;;10.08;100.00;100164.38;5091917;28;20058;-79
2022/10/07 00:32:13;;;;;;;5.97;1.88;;;;;;;10.03;100.00;100159.41;5091165;28;20051;-79
2022/10/07 00:34:39;;;;;;;9.48;2.17;;;;;;;9.90;100.00;100142.66;5112104;28;20040;-79
2022/10/07 00:37:06;;;;;;;7.53;1.85;;;;;;;10.15;100.00;100170.88;5112574;28;20478;-79
2022/10/07 00:39:32;;;;;;;10.88;2.40;;;;;;;10.21;100.00;100172.13;5104606;28;20051;-79
2022/10/07 00:42:00;;;;;;;2.67;2.00;;;;;;;10.04;100.00;100150.25;5090799;28;20071;-79
2022/10/07 00:44:39;;;;;;;6.90;2.92;;;;;;;10.05;100.00;100132.09;5091167;28;20210;-79
2022/10/07 00:47:13;;;;;;;6.43;2.65;;;;;;;10.21;100.00;100162.09;5091453;28;20062;-79
2022/10/07 00:49:45;;;;;;;6.18;2.40;;;;;;;9.99;100.00;100132.72;5096714;28;20058;-79
2022/10/07 00:52:13;;;;;;;11.68;2.53;;;;;;;10.20;100.00;100148.66;5111295;28;20047;-79
2022/10/07 00:54:40;;;;;;;6.55;2.42;;;;;;;10.10;100.00;100143.31;5095445;28;20055;-79
2022/10/07 00:57:09;;;;;;;8.35;2.78;;;;;;;10.21;100.00;100150.38;5092224;28;20084;-79
2022/10/07 00:59:38;;;;;;;4.10;2.15;;;;;;;10.15;100.00;100121.97;5091749;28;20051;-79
2022/10/07 01:02:05;;;;;;;8.20;2.60;;;;;;;10.07;100.00;100111.91;5088290;28;20102;-79
2022/10/07 01:04:32;;;;;;;7.95;2.40;;;;;;;10.09;100.00;100118.03;5111322;28;20273;-79
2022/10/07 01:06:59;;;;;;;11.93;5.25;;;;;;;10.07;100.00;100117.34;5112188;28;20088;-79
2022/10/07 01:09:26;;;;;;;5.40;2.47;;;;;;;10.04;100.00;100114.94;5108695;28;20090;-79
2022/10/07 01:11:58;;;;;;;3.53;2.28;;;;;;;10.00;100.00;100102.69;5088667;28;20040;-79
2022/10/07 01:14:40;;;;;;;6.55;2.28;;;;;;;9.92;100.00;100095.31;5103345;28;20073;-79
2022/10/07 01:17:13;;;;;;;7.80;2.65;;;;;;;9.96;100.00;100095.84;5091614;28;20143;-79
2022/10/07 01:20:08;;;;;;;9.75;2.85;;;;;;;10.20;100.00;100125.06;5091534;28;20048;-79
2022/10/07 01:22:44;;;;;;;5.30;2.55;;;;;;;10.15;100.00;100121.97;5077630;28;20062;-79
2022/10/07 01:25:25;;;;;;;8.48;2.95;;;;;;;10.10;100.00;100117.03;5096439;28;20041;-79
2022/10/07 01:27:55;;;;;;;10.73;2.47;;;;;;;10.04;100.00;100086.91;5108213;28;20051;-79
2022/10/07 01:30:22;;;;;;;4.18;2.28;;;;;;;10.09;100.00;100104.44;5099126;28;20047;-79
2022/10/07 01:32:53;;;;;;;10.02;2.78;;;;;;;9.97;100.00;100069.56;5110778;28;20126;-79
2022/10/07 01:35:24;;;;;;;5.97;2.63;;;;;;;9.99;100.00;100079.22;5111607;28;20054;-79
2022/10/07 01:37:55;;;;;;;6.68;2.75;;;;;;;10.12;100.00;100095.13;5111363;28;20244;-79
2022/10/07 01:40:24;;;;;;;4.15;2.25;;;;;;;10.09;100.00;100071.84;5103302;28;20055;-79
2022/10/07 01:42:51;;;;;;;9.98;2.20;;;;;;;10.03;100.00;100079.78;5104941;28;20557;-79
2022/10/07 01:45:22;;;;;;;7.97;2.70;;;;;;;9.94;100.00;100049.00;5083282;28;20040;-79
2022/10/07 01:47:49;;;;;;;8.93;2.28;;;;;;;9.98;100.00;100069.41;5090758;28;20062;-78
2022/10/07 01:50:18;;;;;;;8.55;2.42;;;;;;;10.20;100.00;100069.88;5090815;28;20055;-79
2022/10/07 01:52:58;;;;;;;6.28;2.38;;;;;;;10.18;100.00;100080.06;5090009;28;20056;-79
2022/10/07 01:55:41;;;;;;;8.98;2.40;;;;;;;10.10;100.00;100069.97;5094941;28;20548;-79
2022/10/07 01:58:23;;;;;;;9.98;2.38;;;;;;;10.08;100.00;100045.66;5096554;28;20055;-79
2022/10/07 02:00:57;;;;;;;7.05;2.55;;;;;;;10.35;100.00;100073.72;5090087;28;20070;-79
2022/10/07 02:03:41;;;;;;;4.18;1.88;;;;;;;10.25;100.00;100049.34;5090103;28;20233;-79
2022/10/07 02:06:16;;;;;;;12.00;2.08;;;;;;;10.24;100.00;100049.53;5070402;28;20048;-79
2022/10/07 02:08:47;;;;;;;6.10;2.25;;;;;;;10.28;100.00;100067.19;5075696;28;20052;-79
2022/10/07 02:11:18;;;;;;;8.55;2.30;;;;;;;10.26;100.00;100053.75;5101700;28;20039;-79
2022/10/07 02:13:56;;;;;;;7.45;2.42;;;;;;;10.48;100.00;100059.69;5100042;28;20506;-79
2022/10/07 02:16:29;;;;;;;5.97;2.22;;;;;;;10.30;100.00;100042.56;5089551;28;20044;-79
2022/10/07 02:18:57;;;;;;;5.00;1.95;;;;;;;10.35;100.00;100065.56;5090623;28;20114;-79
2022/10/07 02:21:29;;;;;;;4.72;2.00;;;;;;;10.17;100.00;100035.72;5090971;28;20049;-79
2022/10/07 02:23:58;;;;;;;6.40;2.20;;;;;;;10.26;100.00;100021.16;5094000;28;20588;-79
2022/10/07 02:26:28;;;;;;;7.75;2.40;;;;;;;10.31;100.00;100028.81;5114802;28;20039;-79
2022/10/07 02:28:58;;;;;;;6.88;2.53;;;;;;;10.32;100.00;100041.41;5114684;28;20339;-79
2022/10/07 02:31:30;;;;;;;11.43;2.22;;;;;;;10.24;100.00;100035.94;5093991;28;20044;-79
2022/10/07 02:33:58;;;;;;;3.88;2.10;;;;;;;10.31;100.00;100028.81;5091238;28;20055;-79
2022/10/07 02:36:30;;;;;;;3.00;1.92;;;;;;;10.23;100.00;100010.59;5094428;28;20055;-79
2022/10/07 02:39:00;;;;;;;7.07;1.77;;;;;;;10.32;100.00;100035.13;5111105;28;20056;-79
2022/10/07 02:41:36;;;;;;;12.60;3.08;;;;;;;10.35;100.00;100034.81;5114882;28;20100;-79
2022/10/07 02:44:15;;;;;;;5.80;2.63;;;;;;;10.35;100.00;100042.97;5108950;28;20484;-79
2022/10/07 02:46:47;;;;;;;7.13;2.60;;;;;;;10.34;100.00;100003.22;5093849;28;20505;-79
2022/10/07 02:49:17;;;;;;;6.18;2.22;;;;;;;10.30;100.00;100016.25;5093608;28;20558;-79
2022/10/07 02:51:50;;;;;;;5.90;1.85;;;;;;;10.22;100.00;100016.19;5092459;28;20037;-79
2022/10/07 02:54:22;;;;;;;4.10;2.10;;;;;;;10.15;100.00;99998.88;5083236;28;20519;-79
2022/10/07 02:56:50;;;;;;;5.03;1.92;;;;;;;10.47;100.00;100024.53;5107640;28;20047;-79
2022/10/07 02:59:18;;;;;;;6.13;2.15;;;;;;;10.47;100.00;100022.66;5114331;28;20490;-79
2022/10/07 03:01:50;;;;;;;8.60;3.42;;;;;;;10.33;100.00;100001.47;5099081;28;20052;-79
2022/10/07 03:04:17;;;;;;;13.65;2.22;;;;;;;10.22;100.00;99999.91;5093392;28;20051;-79
2022/10/07 03:06:44;;;;;;;8.63;2.53;;;;;;;10.43;100.00;100019.41;5099198;28;20055;-79
2022/10/07 03:09:11;;;;;;;7.63;2.30;;;;;;;10.48;100.00;100015.34;5114034;28;20062;-79
2022/10/07 03:11:39;;;;;;;6.32;2.10;;;;;;;10.54;100.00;100026.41;5113291;28;20047;-79
2022/10/07 03:14:05;;;;;;;10.10;2.22;;;;;;;10.36;100.00;100017.50;5113857;28;20040;-79
2022/10/07 03:16:32;;;;;;;8.15;2.40;;;;;;;10.36;100.00;100006.63;5113540;28;20415;-79
2022/10/07 03:19:00;;;;;;;9.18;1.88;;;;;;;10.42;100.00;100027.72;5093519;28;20070;-79
2022/10/07 03:21:27;;;;;;;6.68;2.30;;;;;;;10.38;100.00;99988.28;5087884;28;20052;-79
2022/10/07 03:23:54;;;;;;;6.30;2.35;;;;;;;10.45;100.00;100000.22;5089315;28;20062;-79
2022/10/07 03:26:21;;;;;;;5.47;2.13;;;;;;;10.39;100.00;100001.72;5093574;28;20123;-79
2022/10/07 03:28:48;;;;;;;11.13;2.40;;;;;;;10.26;100.00;99985.81;5093697;28;20134;-79
2022/10/07 03:31:16;;;;;;;6.60;2.30;;;;;;;10.35;100.00;100010.38;5094007;28;20048;-79
2022/10/07 03:33:43;;;;;;;6.57;2.20;;;;;;;10.36;100.00;100002.03;5091296;28;20098;-79
2022/10/07 03:36:11;;;;;;;5.82;2.20;;;;;;;10.36;100.00;99982.19;5113517;28;20071;-79
2022/10/07 03:38:37;;;;;;;3.80;2.00;;;;;;;10.29;100.00;99973.78;5114302;28;20047;-79
2022/10/07 03:41:07;;;;;;;4.05;2.60;;;;;;;10.45;100.00;99986.63;5093045;28;20052;-79
2022/10/07 03:43:34;;;;;;;8.73;2.97;;;;;;;10.42;100.00;99993.22;5092857;28;20048;-79
2022/10/07 03:46:01;;;;;;;13.05;2.80;;;;;;;10.38;100.00;99980.97;5093558;28;20578;-79
2022/10/07 03:48:29;;;;;;;6.28;2.63;;;;;;;10.47;100.00;100000.06;5091869;28;20072;-79
2022/10/07 03:50:56;;;;;;;5.40;2.50;;;;;;;10.36;100.00;99976.75;5084345;28;20051;-79
2022/10/07 03:53:25;;;;;;;11.68;2.35;;;;;;;10.47;100.00;99962.00;5113218;28;20043;-79
2022/10/07 03:55:52;;;;;;;6.60;2.95;;;;;;;10.30;100.00;99958.31;5097773;28;20052;-79
2022/10/07 03:58:20;;;;;;;7.18;2.30;;;;;;;10.36;100.00;99991.19;5093399;28;20048;-79
2022/10/07 04:00:47;;;;;;;7.70;1.90;;;;;;;10.37;100.00;99986.56;5093115;28;20390;-79
2022/10/07 04:03:17;;;;;;;5.75;2.53;;;;;;;10.32;100.00;99956.31;5094906;28;20202;-79
2022/10/07 04:05:44;;;;;;;5.93;2.25;;;;;;;10.38;100.00;99963.81;5113111;28;20062;-79
2022/10/07 04:08:14;;;;;;;8.27;1.80;;;;;;;10.33;100.00;99958.88;5095698;28;20048;-79
2022/10/07 04:10:42;;;;;;;;;;;;;;;10.47;100.00;99983.75;5091985;28;20052;-79
2022/10/07 04:13:12;;;;;;;12.30;2.78;;;;;;;10.49;100.00;99982.53;5089901;28;20341;-79
2022/10/07 04:15:39;;;;;;;7.75;2.33;;;;;;;10.38;100.00;99950.25;5092012;28;20052;-79
2022/10/07 04:18:06;;;;;;;6.20;2.78;;;;;;;10.51;100.00;99988.69;5088344;28;20134;-79
2022/10/07 04:20:32;;;;;;;7.90;2.15;;;;;;;10.45;100.00;99976.59;5101149;28;20047;-79
2022/10/07 04:22:59;;;;;;;5.00;2.00;;;;;;;10.52;100.00;99963.19;5107266;28;20056;-79
2022/10/07 04:25:34;;;;;;;13.88;2.25;;;;;;;10.45;100.00;99952.13;5092464;28;20052;-79
2022/10/07 04:28:04;;;;;;;5.80;2.28;;;;;;;10.27;100.00;99941.31;5091293;28;20083;-78
2022/10/07 04:30:32;;;;;;;5.10;2.22;;;;;;;10.48;100.00;99971.84;5091778;28;20135;-78
2022/10/07 04:32:59;;;;;;;3.97;2.10;;;;;;;10.45;100.00;99959.44;5100199;28;20239;-78
2022/10/07 04:35:26;;;;;;;7.88;2.20;;;;;;;10.26;100.00;99926.03;5112614;28;20130;-78
2022/10/07 04:37:53;;;;;;;4.68;2.10;;;;;;;10.39;100.00;99933.75;5112224;28;20058;-78
2022/10/07 04:40:21;;;;;;;14.82;2.08;;;;;;;10.35;100.00;99937.81;5098917;28;20040;-78
2022/10/07 04:45:35;;;;;;;6.78;2.03;;;;;;;10.30;100.00;99926.56;5088406;28;20618;-78
2022/10/07 04:48:02;;;;;;;6.90;2.13;;;;;;;10.18;100.00;99930.59;5108771;28;20135;-78
2022/10/07 04:50:29;;;;;;;6.70;1.73;;;;;;;10.34;100.00;99957.88;5112358;28;20104;-78
2022/10/07 04:52:56;;;;;;;4.70;1.85;;;;;;;10.16;100.00;99930.78;5111340;28;20050;-78
2022/10/07 04:55:22;;;;;;;4.20;2.75;;;;;;;10.26;100.00;99933.34;5111275;28;20048;-78
2022/10/07 04:57:49;;;;;;;6.75;2.10;;;;;;;10.42;100.00;99938.03;5091573;28;20055;-78
2022/10/07 05:00:22;;;;;;;5.50;1.80;;;;;;;10.30;100.00;99936.56;5088977;28;20066;-78
2022/10/07 05:02:53;;;;;;;10.40;1.95;;;;;;;10.29;100.00;99933.00;5086925;28;20052;-78
2022/10/07 05:05:23;;;;;;;8.93;2.10;;;;;;;10.30;100.00;99928.41;5091761;28;20044;-78
2022/10/07 05:07:50;;;;;;;5.03;1.80;;;;;;;10.19;100.00;99925.00;5091457;28;20072;-78
2022/10/07 05:10:17;;;;;;;5.20;1.95;;;;;;;10.20;100.00;99906.81;5090793;28;20060;-78
2022/10/07 05:12:44;;;;;;;8.93;2.10;;;;;;;10.23;100.00;99915.50;5071144;28;20046;-78
2022/10/07 05:15:11;;;;;;;7.82;2.47;;;;;;;10.30;100.00;99925.69;5088304;28;20054;-78
2022/10/07 05:17:39;;;;;;;7.22;2.63;;;;;;;10.18;100.00;99904.28;5103367;28;20051;-78
2022/10/07 05:20:08;;;;;;;5.15;2.10;;;;;;;10.16;100.00;99914.47;5109584;28;20047;-78
2022/10/07 05:22:36;;;;;;;8.77;4.15;;;;;;;10.26;100.00;99917.88;5099901;28;20472;-78
2022/10/07 05:25:05;;;;;;;10.55;2.42;;;;;;;10.50;100.00;99939.91;5109751;28;20055;-78
2022/10/07 05:27:32;;;;;;;9.15;2.33;;;;;;;10.26;100.00;99907.00;5097931;28;20080;-78
2022/10/07 05:29:58;;;;;;;5.40;2.42;;;;;;;10.43;100.00;99939.72;5088715;28;20052;-78
2022/10/07 05:32:26;;;;;;;10.65;2.70;;;;;;;10.40;100.00;99926.44;5108488;28;20126;-79
2022/10/07 05:34:53;;;;;;;7.25;2.83;;;;;;;10.43;100.00;99927.00;5091125;28;20055;-79
2022/10/07 05:37:21;;;;;;;4.15;2.20;;;;;;;10.51;100.00;99925.28;5088716;28;20044;-78
2022/10/07 05:39:47;;;;;;;6.68;2.00;;;;;;;10.48;100.00;99907.47;5089632;28;20063;-78
2022/10/07 05:42:14;;;;;;;4.03;2.45;;;;;;;10.48;100.00;99898.44;5089372;28;20131;-78
2022/10/07 05:44:41;;;;;;;5.53;2.20;;;;;;;10.54;100.00;99919.53;5087851;28;20582;-78
2022/10/07 05:47:07;;;;;;;5.93;2.50;;;;;;;10.43;100.00;99907.97;5108987;28;20062;-78
2022/10/07 05:49:34;;;;;;;5.25;2.67;;;;;;;10.56;100.00;99907.47;5097355;28;20048;-78
2022/10/07 05:52:01;;;;;;;12.75;2.78;;;;;;;10.76;100.00;99928.91;5089918;28;20036;-78
2022/10/07 05:54:29;;;;;;;5.40;2.63;;;;;;;10.62;100.00;99920.38;5110159;28;20048;-78
2022/10/07 05:56:56;;;;;;;7.57;2.70;;;;;;;10.57;100.00;99905.63;5109668;28;20047;-78
2022/10/07 05:59:22;;;;;;;8.65;3.05;;;;;;;10.49;100.00;99897.44;5087544;28;20066;-78
2022/10/07 06:01:49;;;;;;;5.78;2.40;;;;;;;10.62;100.00;99901.34;5107607;28;20177;-78
2022/10/07 06:04:15;;;;;;;8.20;2.78;;;;;;;10.56;100.00;99888.44;5110480;28;20058;-78
2022/10/07 06:06:42;;;;;;;6.68;2.78;;;;;;;10.69;100.00;99903.41;5093087;28;20044;-78
2022/10/07 06:14:54;;;;;;;8.95;2.70;;;;;;;10.78;100.00;99903.25;5037546;28;20056;-78
2022/10/07 06:17:21;;;;;;;7.80;2.55;;;;;;;10.83;100.00;99905.47;5075426;28;20051;-78
2022/10/07 06:19:47;;;;;;;5.90;2.20;;;;;;;10.75;100.00;99891.88;5098212;28;20058;-78
2022/10/07 06:22:14;;;;;;;2.88;2.10;;;;;;;10.79;100.00;99891.38;5089715;28;20076;-78
2022/10/07 06:24:41;;;;;;;3.20;2.30;;;;;;;11.00;100.00;99913.66;5105231;28;20047;-78
2022/10/07 06:27:07;;;;;;;7.18;3.50;;;;;;;11.02;100.00;99911.59;5110723;28;20479;-78
2022/10/07 06:29:35;;;;;;;5.07;2.53;;;;;;;10.88;100.00;99883.22;5108358;28;20058;-78
2022/10/07 06:32:02;;;;;;;10.70;2.55;;;;;;;11.15;100.00;99915.53;5090289;28;20060;-78
2022/10/07 06:34:29;;;;;;;13.70;2.97;;;;;;;11.07;100.00;99879.31;5097940;28;20047;-78
2022/10/07 06:36:56;;;;;;;7.22;3.15;;;;;;;11.04;100.00;99896.81;5101586;28;20048;-78
2022/10/07 06:39:22;;;;;;;6.03;3.20;;;;;;;11.12;100.00;99910.41;5090195;28;20127;-78
2022/10/07 06:41:51;;;;;;;6.90;2.97;;;;;;;11.05;100.00;99882.19;5090000;28;20063;-78
2022/10/07 06:44:18;;;;;;;7.90;3.05;;;;;;;11.27;100.00;99920.63;5089712;28;20072;-78
2022/10/07 06:46:46;;;;;;;7.80;3.30;;;;;;;11.32;100.00;99900.03;5089966;28;20078;-78
2022/10/07 06:49:12;;;;;;;7.35;2.90;;;;;;;11.23;100.00;99882.03;5101196;28;20047;-77
2022/10/07 06:51:39;;;;;;;7.18;3.00;;;;;;;11.47;100.00;99910.22;5110373;28;20414;-78
2022/10/07 06:54:05;;;;;;;6.75;2.78;;;;;;;11.42;100.00;99907.16;5098467;28;20044;-78
2022/10/07 06:56:32;;;;;;;11.55;2.90;;;;;;;11.51;100.00;99897.97;5089755;28;20071;-78
2022/10/07 06:59:00;;;;;;;8.45;2.38;;;;;;;11.42;100.00;99882.66;5090202;28;20062;-78
2022/10/07 07:01:27;;;;;;;8.65;2.25;;;;;;;11.62;100.00;99905.78;5088678;28;20267;-78
2022/10/07 07:03:55;;;;;;;9.90;2.78;;;;;;;11.75;100.00;99907.94;5096181;28;20062;-78
2022/10/07 07:06:22;;;;;;;6.15;2.85;;;;;;;11.68;100.00;99872.41;5110541;28;20497;-78
2022/10/07 07:08:49;;;;;;;6.60;2.80;;;;;;;11.96;100.00;99907.41;5100272;28;20055;-78
2022/10/07 07:14:02;;;;;;;6.45;2.13;;;;;;;11.89;100.00;99898.19;5092569;28;20059;-78
2022/10/07 07:16:29;;;;;;;5.50;2.60;;;;;;;12.03;100.00;99908.41;5093669;28;20052;-78
2022/10/07 07:19:00;;;;;;;8.60;2.70;;;;;;;11.95;100.00;99885.78;5102392;28;20131;-78
2022/10/07 07:21:27;;;;;;;5.30;2.30;;;;;;;12.09;100.00;99889.63;5114329;28;20047;-78
2022/10/07 07:23:54;;;;;;;6.43;2.42;;;;;;;12.20;100.00;99887.38;5112938;28;20101;-78
2022/10/07 07:26:21;;;;;;;8.20;2.38;;;;;;;12.46;100.00;99909.91;5106743;28;20496;-78
2022/10/07 07:28:51;;;;;;;6.50;3.17;;;;;;;12.58;100.00;99903.00;5093343;28;20067;-78
2022/10/07 07:31:18;;;;;;;6.93;3.28;;;;;;;12.75;100.00;99912.81;5093166;28;20491;-78
2022/10/07 07:33:51;;;;;;;13.43;4.25;;;;;;;12.77;100.00;99914.47;5107598;28;20040;-78
2022/10/07 07:36:21;;;;;;;11.27;4.75;;;;;;;12.73;100.00;99894.91;5073230;28;20052;-78
2022/10/07 07:38:50;;;;;;;;;;;;;;;12.93;100.00;99907.03;5073616;28;20119;-78
2022/10/07 07:41:17;;;;;;;17.90;3.78;;;;;;;13.13;100.00;99901.09;5073103;28;19955;-78
2022/10/07 07:43:47;;;;;;;18.45;3.67;;;;;;;13.22;100.00;99902.72;5079949;28;20074;-78
2022/10/07 07:46:14;;;;;;;5.05;3.08;;;;;;;13.58;100.00;99904.78;5086320;28;20051;-78
2022/10/07 07:48:40;;;;;;;11.18;2.55;;;;;;;13.66;100.00;99892.94;5100468;28;20135;-78
2022/10/07 07:51:07;;;;;;;11.63;3.35;;;;;;;13.84;100.00;99903.50;5113708;28;20054;-78
2022/10/07 07:53:36;;;;;;;8.10;2.33;;;;;;;13.76;100.00;99866.19;5112747;28;20048;-78
2022/10/07 07:56:03;;;;;;;6.90;2.42;;;;;;;14.00;100.00;99886.06;5113384;28;20047;-78
2022/10/07 07:58:29;;;;;;;7.47;2.55;;;;;;;14.11;100.00;99871.06;5113541;28;20053;-78
2022/10/07 08:01:01;;;;;;;10.57;2.50;;;;;;;14.29;100.00;99887.06;5096895;28;20048;-78
2022/10/07 08:03:27;;;;;;;6.55;2.00;;;;;;;14.37;100.00;99895.16;5090435;28;20406;-78
2022/10/07 08:05:54;;;;;;;5.10;2.00;;;;;;;14.44;100.00;99895.25;5093379;28;20040;-78
2022/10/07 08:08:21;;;;;;;8.80;2.30;;;;;;;14.41;100.00;99866.38;5113392;28;20130;-78
2022/10/07 08:10:49;;;;;;;5.97;2.17;;;;;;;14.64;100.00;99898.22;5110948;28;20054;-78
2022/10/07 08:13:16;;;;;;;7.45;2.33;;;;;;;14.58;100.00;99875.19;5112298;28;20244;-78
2022/10/07 08:15:42;;;;;;;5.78;2.38;;;;;;;14.69;100.00;99879.31;5113036;28;20054;-78
2022/10/07 08:18:09;;;;;;;10.38;2.50;;;;;;;14.74;100.00;99851.38;5093363;28;20058;-78
2022/10/07 08:20:36;;;;;;;5.35;2.80;;;;;;;14.83;100.00;99862.00;5112406;28;20043;-78
2022/10/07 08:23:03;;;;;;;5.93;2.60;;;;;;;14.92;100.00;99854.50;5112190;28;20479;-78
2022/10/07 08:25:30;;;;;;;6.97;2.67;;;;;;;15.03;100.00;99872.31;5112742;28;20574;-79
2022/10/07 08:27:58;;;;;;;4.63;2.72;;;;;;;15.28;100.00;99882.81;5112896;28;20143;-78
2022/10/07 08:30:25;;;;;;;8.57;2.65;;;;;;;15.22;100.00;99860.66;5112452;28;20124;-78
2022/10/07 08:32:51;;;;;;;8.35;2.83;;;;;;;15.14;100.00;99855.31;5101728;28;20051;-78
2022/10/07 08:35:18;;;;;;;5.22;3.15;;;;;;;15.26;100.00;99843.84;5095919;28;20053;-79
2022/10/07 08:37:45;;;;;;;17.60;3.53;;;;;;;15.56;100.00;99863.66;5091663;28;20052;-78
2022/10/07 08:40:15;;;;;;;7.55;3.10;;;;;;;15.34;100.00;99836.31;5073190;28;20130;-78
2022/10/07 08:42:43;;;;;;;5.57;3.05;;;;;;;15.56;100.00;99858.16;5091320;28;20052;-78
2022/10/07 08:45:18;;;;;;;12.05;3.60;;;;;;;15.53;100.00;99834.75;5091630;28;20056;-78
2022/10/07 08:47:47;;;;;;;4.63;2.60;;;;;;;15.64;100.00;99827.00;5095484;28;20055;-78
2022/10/07 08:50:17;;;;;;;9.27;2.78;;;;;;;15.71;100.00;99834.22;5071302;28;20057;-78
2022/10/07 08:52:50;;;;;;;8.88;3.25;;;;;;;15.87;100.00;99843.22;5078611;28;20056;-78
2022/10/07 08:55:22;;;;;;;15.40;3.50;;;;;;;16.01;100.00;99853.19;5084060;28;20048;-78
2022/10/07 08:58:07;;;;;;;9.80;3.20;;;;;;;16.02;98.32;99823.88;5091757;28;20145;-79
2022/10/07 09:00:42;;;;;;;7.82;3.10;;;;;;;16.10;97.08;99832.75;5089913;28;20052;-78
2022/10/07 09:03:20;;;;;;;5.57;2.63;;;;;;;16.15;94.85;99834.03;5105628;28;20132;-78
2022/10/07 09:05:49;;;;;;;5.47;2.50;;;;;;;16.25;95.60;99832.59;5091414;28;20054;-78
2022/10/07 09:08:22;;;;;;;9.60;3.08;;;;;;;16.13;93.51;99827.94;5092017;28;20134;-79
2022/10/07 09:10:52;;;;;;;10.82;2.92;;;;;;;16.19;94.38;99827.09;5088348;28;20043;-79
2022/10/07 09:13:21;;;;;;;12.07;3.35;;;;;;;16.39;95.92;99838.97;5090766;28;20109;-79
2022/10/07 09:15:52;;;;;;;4.85;2.80;;;;;;;16.47;96.93;99824.25;5098335;28;20051;-78
2022/10/07 09:18:23;;;;;;;7.03;4.45;;;;;;;16.48;91.02;99822.34;5111576;28;20048;-79
2022/10/07 09:20:53;;;;;;;9.35;2.90;;;;;;;16.56;91.77;99816.63;5094985;28;20075;-79
2022/10/07 09:23:23;;;;;;;8.10;2.53;;;;;;;16.72;93.45;99810.75;5072166;28;20054;-79
2022/10/07 09:25:51;;;;;;;5.82;2.63;;;;;;;16.77;92.31;99804.63;5096589;28;20446;-78
2022/10/07 09:28:28;;;;;;;8.30;2.83;;;;;;;16.74;92.11;99797.69;5091386;28;20048;-78
2022/10/07 09:30:56;;;;;;;11.68;2.70;;;;;;;16.83;92.87;99819.44;5090741;28;20506;-78
2022/10/07 09:33:24;;;;;;;6.72;2.70;;;;;;;16.76;91.29;99812.03;5088856;28;20048;-79
2022/10/07 09:35:53;;;;;;;5.53;2.72;;;;;;;16.80;91.35;99794.09;5089861;28;20507;-79
2022/10/07 09:38:32;;;;;;;7.43;2.92;;;;;;;16.84;91.17;99789.00;5091079;28;20500;-78
2022/10/07 09:41:18;;;;;;;4.68;2.28;;;;;;;16.76;89.85;99798.31;5091090;28;20062;-79
2022/10/07 09:44:01;;;;;;;5.32;2.70;;;;;;;16.71;89.66;99769.78;5090550;28;20083;-79
2022/10/07 09:46:45;;;;;;;8.27;2.78;;;;;;;16.99;90.70;99803.41;5091155;28;20131;-79
2022/10/07 09:49:40;;;;;;;4.75;2.60;;;;;;;16.90;86.82;99779.97;5089329;28;20135;-78
2022/10/07 09:52:16;;;;;;;9.75;2.88;;;;;;;16.93;90.08;99784.19;5108504;28;20380;-79
2022/10/07 09:54:43;;;;;;;6.57;2.65;;;;;;;17.08;91.26;99793.06;5090615;28;20044;-78
2022/10/07 09:57:25;;;;;;;6.07;2.50;;;;;;;17.17;90.50;99789.03;5090852;28;20052;-78
2022/10/07 10:00:12;;;;;;;7.85;2.42;;;;;;;17.26;91.34;99786.06;5105901;28;20052;-78
2022/10/07 10:02:45;;;;;;;3.63;2.13;;;;;;;17.16;87.01;99767.25;5110340;28;20057;-78
2022/10/07 10:05:21;;;;;;;6.10;2.30;;;;;;;17.35;88.66;99798.53;5110995;28;20052;-79
2022/10/07 10:07:52;;;;;;;12.25;2.85;;;;;;;17.42;87.79;99796.63;5085800;28;20181;-79
2022/10/07 10:10:23;;;;;;;6.55;3.10;;;;;;;17.37;84.56;99773.59;5093360;28;20044;-78
2022/10/07 10:12:51;;;;;;;6.82;2.90;;;;;;;17.40;85.02;99768.50;5110119;28;20138;-79
2022/10/07 10:15:25;;;;;;;8.25;3.13;;;;;;;17.47;84.84;99783.06;5111100;28;20051;-79
2022/10/07 10:17:55;;;;;;;9.13;2.03;;;;;;;17.47;87.47;99774.00;5110799;28;20055;-79
2022/10/07 10:20:31;;;;;;;5.68;2.50;;;;;;;17.47;84.30;99777.56;5111018;28;20490;-79
2022/10/07 10:23:00;;;;;;;4.82;2.22;;;;;;;17.61;85.23;99780.28;5099761;28;20095;-79
2022/10/07 10:28:43;;;;;;;5.63;2.50;;;;;;;17.60;85.88;99751.97;5053608;28;20043;-79
2022/10/07 10:31:21;;;;;;;7.18;2.67;;;;;;;17.65;84.79;99748.56;5090896;28;20066;-78
2022/10/07 10:33:58;;;;;;;5.10;2.50;;;;;;;17.56;83.43;99755.34;5089639;28;20044;-79
2022/10/07 10:36:27;;;;;;;9.55;2.70;;;;;;;17.52;82.57;99747.53;5083989;28;20044;-79
2022/10/07 10:39:02;;;;;;;10.73;2.17;;;;;;;17.59;88.91;99735.69;5086744;28;20570;-79
2022/10/07 10:41:35;;;;;;;6.72;2.38;;;;;;;17.83;87.75;99745.09;5089969;28;20163;-78
2022/10/07 10:44:26;;;;;;;6.60;2.33;;;;;;;17.96;86.33;99734.06;5092688;28;20043;-78
2022/10/07 10:47:03;;;;;;;7.70;4.07;;;;;;;18.04;84.60;99736.56;5094137;28;20403;-78
2022/10/07 10:49:37;;;;;;;10.82;2.90;;;;;;;18.24;82.21;99745.78;5093321;28;20496;-79
2022/10/07 10:52:26;;;;;;;9.18;2.35;;;;;;;18.03;82.54;99725.78;5101512;28;20414;-79
2022/10/07 10:55:12;;;;;;;4.18;2.13;;;;;;;18.04;83.11;99722.81;5093169;28;20059;-79
2022/10/07 10:57:50;;;;;;;3.60;2.35;;;;;;;18.15;82.14;99713.00;5108287;28;20056;-79
2022/10/07 11:00:20;;;;;;;3.58;2.13;;;;;;;18.30;82.75;99725.63;5073992;28;20048;-78
2022/10/07 11:03:04;;;;;;;9.93;2.60;;;;;;;18.27;79.17;99712.31;5073040;28;20147;-79
2022/10/07 11:05:35;;;;;;;7.97;2.58;;;;;;;18.35;83.85;99707.38;5073865;28;20041;-79
2022/10/07 11:08:10;;;;;;;7.20;2.60;;;;;;;18.15;80.91;99687.41;5092103;28;20052;-79
2022/10/07 11:10:40;;;;;;;8.38;3.45;;;;;;;18.30;81.21;99687.91;5091880;28;20055;-79
2022/10/07 11:13:24;;;;;;;5.60;2.40;;;;;;;18.45;82.44;99697.78;5093504;28;20044;-78
2022/10/07 11:15:56;;;;;;;6.35;2.72;;;;;;;18.48;78.92;99692.66;5092778;28;20414;-79
2022/10/07 11:18:30;;;;;;;6.50;2.70;;;;;;;18.61;77.77;99699.97;5114176;28;20039;-79
2022/10/07 11:21:01;;;;;;;6.88;2.50;;;;;;;18.69;79.22;99676.81;5109009;28;20102;-79
2022/10/07 11:23:44;;;;;;;7.38;2.83;;;;;;;18.59;78.49;99666.31;5097384;28;20050;-79
2022/10/07 11:26:18;;;;;;;9.75;3.00;;;;;;;18.62;79.58;99674.09;5099697;28;20047;-79
2022/10/07 11:28:46;;;;;;;6.20;3.47;;;;;;;18.89;79.42;99688.53;5093368;28;20506;-79
2022/10/07 11:31:20;;;;;;;7.07;2.70;;;;;;;19.12;82.36;99677.91;5093720;28;20070;-79
2022/10/07 11:33:51;;;;;;;6.63;3.05;;;;;;;19.04;77.89;99662.53;5092492;28;20040;-79
2022/10/07 11:36:25;;;;;;;16.50;3.45;;;;;;;18.69;79.24;99657.53;5092136;28;20127;-79
2022/10/07 11:38:52;;;;;;;10.73;3.30;;;;;;;18.94;80.30;99663.06;5101541;28;20048;-79
2022/10/07 11:41:26;;;;;;;6.32;3.17;;;;;;;19.20;77.43;99675.69;5113765;28;20410;-79
2022/10/07 11:43:55;;;;;;;6.63;3.38;;;;;;;19.36;76.43;99665.13;5092224;28;20447;-78
2022/10/07 11:46:26;;;;;;;7.45;3.15;;;;;;;19.37;75.84;99656.63;5093443;28;20051;-79
2022/10/07 11:49:00;;;;;;;7.18;3.40;;;;;;;19.20;74.97;99642.63;5092882;28;20083;-79
2022/10/07 11:51:33;;;;;;;7.38;3.35;;;;;;;19.21;76.80;99633.28;5105952;28;20044;-79